Time;durP1;ratioP1;P1;durP2;ratioP2;P2;SDS_P1;SDS_P2;PMS_P1;PMS_P2;Temp;Humidity;BMP_temperature;BMP_pressure;BME280_temperature;BME280_humidity;BME280_pressure;Samples;Min_cycle;Max_cycle;Signal;HPM_P1;HPM_P2
2024/05/05 00:01:06;;;;;;;147.07;47.77;;;17.10;99.90;;;;;;5488758;26;20547;-49
2024/05/05 00:03:37;;;;;;;146.67;47.43;;;17.20;99.90;;;;;;5488115;26;20587;-48
2024/05/05 00:06:07;;;;;;;146.63;47.23;;;17.10;99.90;;;;;;5488935;26;20599;-48
2024/05/05 00:08:37;;;;;;;146.43;47.43;;;17.30;99.90;;;;;;5488742;26;20582;-49
2024/05/05 00:11:10;;;;;;;146.97;47.70;;;17.20;99.90;;;;;;5488533;26;20543;-48
2024/05/05 00:13:40;;;;;;;146.73;47.50;;;17.20;99.90;;;;;;5488392;26;20626;-48
2024/05/05 00:16:10;;;;;;;146.30;47.23;;;17.30;99.90;;;;;;5488437;26;20656;-48
2024/05/05 00:18:41;;;;;;;147.17;47.73;;;17.20;99.90;;;;;;5487912;26;20574;-55
2024/05/05 00:21:11;;;;;;;146.93;47.60;;;17.30;99.60;;;;;;5488209;26;20665;-55
2024/05/05 00:23:41;;;;;;;146.60;47.50;;;17.30;99.40;;;;;;5488333;26;20622;-49
2024/05/05 00:26:13;;;;;;;146.93;47.73;;;17.30;99.80;;;;;;5488446;26;20583;-51
2024/05/05 00:28:43;;;;;;;147.27;48.03;;;17.40;99.70;;;;;;5487950;26;21202;-49
2024/05/05 00:31:13;;;;;;;147.50;47.93;;;17.20;99.90;;;;;;5488369;26;20648;-50
2024/05/05 00:33:43;;;;;;;147.00;47.70;;;17.20;99.90;;;;;;5455189;26;20586;-48
2024/05/05 00:36:14;;;;;;;147.17;47.73;;;17.20;99.90;;;;;;5487895;26;20602;-58
2024/05/05 00:38:44;;;;;;;146.67;47.47;;;17.20;99.90;;;;;;5487673;26;21268;-48
2024/05/05 00:41:16;;;;;;;147.00;47.57;;;17.10;99.90;;;;;;5487990;26;20534;-48
2024/05/05 00:43:46;;;;;;;147.53;47.97;;;17.20;99.90;;;;;;5487719;26;20688;-48
2024/05/05 00:46:17;;;;;;;146.40;47.50;;;17.20;99.90;;;;;;5488259;26;20567;-48
2024/05/05 00:48:47;;;;;;;146.80;47.70;;;17.20;99.90;;;;;;5487528;26;20946;-49
2024/05/05 00:51:19;;;;;;;146.80;47.67;;;17.20;99.90;;;;;;5487960;26;20942;-59
2024/05/05 00:53:49;;;;;;;146.90;47.60;;;17.00;99.90;;;;;;5455061;26;20704;-49
2024/05/05 00:56:24;;;;;;;146.57;47.57;;;17.10;99.90;;;;;;5487853;26;20622;-52
2024/05/05 00:58:54;;;;;;;146.83;47.67;;;17.30;99.90;;;;;;5487303;26;20671;-60
2024/05/05 01:01:24;;;;;;;147.03;47.80;;;17.30;99.90;;;;;;5455876;26;20969;-49
2024/05/05 01:03:55;;;;;;;146.67;47.43;;;17.20;99.90;;;;;;5490635;26;20642;-49
2024/05/05 01:06:25;;;;;;;147.03;47.63;;;17.20;99.90;;;;;;5491532;26;20942;-49
2024/05/05 01:08:55;;;;;;;146.57;47.40;;;17.20;99.90;;;;;;5491100;26;20590;-49
2024/05/05 01:11:28;;;;;;;146.43;47.40;;;17.10;99.90;;;;;;5491686;26;20547;-49
2024/05/05 01:13:58;;;;;;;146.17;47.33;;;17.30;99.90;;;;;;5490776;26;20631;-49
2024/05/05 01:16:28;;;;;;;146.77;47.53;;;17.10;99.90;;;;;;5491439;26;21179;-49
2024/05/05 01:18:58;;;;;;;146.50;47.57;;;17.10;99.90;;;;;;5490446;26;21101;-52
2024/05/05 01:21:28;;;;;;;146.87;47.83;;;17.20;99.90;;;;;;5491236;26;21043;-52
2024/05/05 01:24:01;;;;;;;146.97;47.80;;;17.30;99.90;;;;;;5490588;26;20695;-53
2024/05/05 01:26:31;;;;;;;146.30;47.40;;;17.20;99.90;;;;;;5491265;26;20586;-52
2024/05/05 01:29:01;;;;;;;146.53;47.60;;;17.30;99.90;;;;;;5490377;26;20594;-50
2024/05/05 01:31:31;;;;;;;146.97;47.73;;;17.30;99.90;;;;;;5491113;26;20663;-53
2024/05/05 01:34:01;;;;;;;147.10;47.80;;;17.20;99.90;;;;;;5489825;26;20918;-52
2024/05/05 01:36:31;;;;;;;146.53;47.60;;;17.10;99.90;;;;;;5491059;26;20994;-52
2024/05/05 01:39:05;;;;;;;147.00;47.87;;;17.20;99.90;;;;;;5490258;26;20696;-51
2024/05/05 01:41:35;;;;;;;146.83;47.70;;;17.20;99.90;;;;;;5491103;26;20651;-51
2024/05/05 01:44:06;;;;;;;146.63;47.70;;;17.20;99.90;;;;;;5490381;26;21181;-49
2024/05/05 01:46:39;;;;;;;146.37;47.53;;;17.20;99.90;;;;;;5454786;26;20524;-49
2024/05/05 01:49:09;;;;;;;146.93;47.63;;;17.20;99.90;;;;;;5453776;26;20986;-48
2024/05/05 01:51:41;;;;;;;146.90;47.93;;;17.20;99.90;;;;;;5490136;26;20915;-48
2024/05/05 01:54:14;;;;;;;146.70;47.67;;;17.20;99.90;;;;;;5490231;26;20618;-48
2024/05/05 01:56:44;;;;;;;146.87;47.50;;;17.10;99.90;;;;;;5491037;26;20640;-48
2024/05/05 01:59:14;;;;;;;147.03;47.90;;;17.10;99.90;;;;;;5490006;26;21090;-48
2024/05/05 02:01:44;;;;;;;146.63;47.50;;;17.20;99.90;;;;;;5490478;26;20539;-51
2024/05/05 02:04:14;;;;;;;146.80;47.77;;;17.10;99.90;;;;;;5489952;26;20563;-50
2024/05/05 02:06:44;;;;;;;146.50;47.63;;;17.00;99.90;;;;;;5490748;26;20595;-50
2024/05/05 02:09:17;;;;;;;146.33;47.27;;;17.00;99.90;;;;;;5490108;26;20963;-50
2024/05/05 02:11:47;;;;;;;146.30;47.50;;;17.00;99.90;;;;;;5490725;26;20550;-48
2024/05/05 02:14:17;;;;;;;146.03;47.30;;;17.10;99.90;;;;;;5488494;26;20936;-48
2024/05/05 02:16:47;;;;;;;146.57;47.53;;;17.00;99.90;;;;;;5490764;26;21187;-48
2024/05/05 02:19:17;;;;;;;146.23;47.47;;;17.00;99.90;;;;;;5489579;26;20598;-48
2024/05/05 02:21:47;;;;;;;146.50;47.43;;;16.90;99.90;;;;;;5490533;26;20542;-48
2024/05/05 02:24:20;;;;;;;146.73;47.77;;;16.90;99.90;;;;;;5457688;26;20636;-47
2024/05/05 02:26:50;;;;;;;146.43;47.37;;;16.80;99.90;;;;;;5491293;26;20535;-47
2024/05/05 02:29:20;;;;;;;145.63;47.13;;;17.00;99.90;;;;;;5490051;26;20550;-48
2024/05/05 02:31:50;;;;;;;146.07;47.33;;;16.90;99.90;;;;;;5490491;26;20535;-48
2024/05/05 02:34:20;;;;;;;146.27;47.37;;;16.80;99.90;;;;;;5489236;26;20558;-48
2024/05/05 02:36:50;;;;;;;145.90;47.20;;;16.80;99.90;;;;;;5490571;26;20575;-48
2024/05/05 02:39:23;;;;;;;146.47;47.40;;;16.90;99.90;;;;;;5489564;26;20571;-49
2024/05/05 02:41:53;;;;;;;145.93;47.17;;;16.80;99.90;;;;;;5490031;26;20536;-48
2024/05/05 02:44:23;;;;;;;146.37;47.53;;;16.80;99.90;;;;;;5457331;26;20661;-49
2024/05/05 02:46:53;;;;;;;146.70;47.67;;;16.70;99.90;;;;;;5490157;26;20626;-52
2024/05/05 02:49:23;;;;;;;145.40;46.87;;;16.70;99.90;;;;;;5489231;26;20631;-53
2024/05/05 02:51:53;;;;;;;145.77;47.20;;;16.90;99.90;;;;;;5490011;26;20539;-53
2024/05/05 02:54:26;;;;;;;146.00;47.33;;;16.70;99.90;;;;;;5489152;26;20897;-52
2024/05/05 02:56:56;;;;;;;145.93;47.17;;;16.70;99.90;;;;;;5489646;26;20617;-51
2024/05/05 02:59:26;;;;;;;145.77;47.50;;;16.60;99.90;;;;;;5489380;26;21071;-51
2024/05/05 03:01:56;;;;;;;146.57;47.57;;;16.80;99.90;;;;;;5489887;26;20531;-49
2024/05/05 03:04:26;;;;;;;145.93;47.43;;;16.70;99.90;;;;;;5488747;26;21106;-48
2024/05/05 03:06:56;;;;;;;145.80;47.23;;;16.70;99.90;;;;;;5490277;26;21058;-49
2024/05/05 03:09:29;;;;;;;146.37;47.53;;;16.70;99.90;;;;;;5489169;26;20547;-49
2024/05/05 03:11:59;;;;;;;145.97;47.47;;;16.70;99.90;;;;;;5489833;26;20582;-48
2024/05/05 03:14:29;;;;;;;146.27;47.57;;;16.70;99.90;;;;;;5489204;26;20555;-48
2024/05/05 03:16:59;;;;;;;145.43;47.07;;;16.70;99.90;;;;;;5489595;26;20691;-49
2024/05/05 03:19:29;;;;;;;146.00;47.27;;;16.70;99.90;;;;;;5488598;26;20985;-49
2024/05/05 03:21:59;;;;;;;145.60;47.10;;;16.80;99.90;;;;;;5457333;26;20594;-48
2024/05/05 03:24:32;;;;;;;146.00;47.37;;;16.60;99.90;;;;;;5488415;26;20542;-48
2024/05/05 03:27:02;;;;;;;146.47;47.60;;;16.70;99.90;;;;;;5489535;26;21166;-48
2024/05/05 03:29:32;;;;;;;145.90;47.37;;;16.60;99.90;;;;;;5489032;26;20526;-47
2024/05/05 03:32:02;;;;;;;145.53;47.17;;;16.70;99.90;;;;;;5489486;26;20997;-48
2024/05/05 03:34:35;;;;;;;145.47;47.10;;;16.70;99.90;;;;;;5488287;26;20586;-49
2024/05/05 03:37:06;;;;;;;145.10;46.97;;;16.70;99.90;;;;;;5488354;26;21154;-49
2024/05/05 03:39:39;;;;;;;145.47;46.97;;;16.70;99.90;;;;;;5488763;26;20586;-48
2024/05/05 03:42:10;;;;;;;146.77;47.60;;;16.70;99.90;;;;;;5489474;26;20594;-58
2024/05/05 03:44:40;;;;;;;146.00;47.40;;;16.70;99.90;;;;;;5488440;26;20676;-50
2024/05/05 03:47:10;;;;;;;146.60;47.67;;;16.60;99.90;;;;;;5456909;26;20695;-49
2024/05/05 03:49:40;;;;;;;145.73;47.40;;;16.50;99.90;;;;;;5477894;26;20635;-49
2024/05/05 03:52:10;;;;;;;145.67;47.27;;;16.50;99.90;;;;;;5457390;26;20678;-50
2024/05/05 03:54:43;;;;;;;145.70;47.20;;;16.50;99.90;;;;;;5478572;26;20643;-49
2024/05/05 03:57:13;;;;;;;145.67;47.23;;;16.50;99.90;;;;;;5492572;26;21031;-50
2024/05/05 03:59:43;;;;;;;145.93;47.33;;;16.50;99.90;;;;;;5518551;26;20632;-48
2024/05/05 04:02:13;;;;;;;145.43;47.13;;;16.70;99.90;;;;;;5514610;26;20689;-49
2024/05/05 04:04:43;;;;;;;145.40;47.33;;;16.60;99.90;;;;;;5516527;26;20565;-49
2024/05/05 04:07:13;;;;;;;145.50;47.17;;;16.60;99.90;;;;;;5511318;26;20616;-49
2024/05/05 04:09:46;;;;;;;145.80;47.47;;;16.50;99.90;;;;;;5515329;26;20659;-48
2024/05/05 04:12:16;;;;;;;145.37;47.00;;;16.60;99.90;;;;;;5500007;26;20594;-50
2024/05/05 04:14:46;;;;;;;145.10;46.87;;;16.60;99.90;;;;;;5520608;26;20620;-49
2024/05/05 04:17:16;;;;;;;145.53;47.23;;;16.50;99.90;;;;;;5517953;26;21306;-48
2024/05/05 04:19:46;;;;;;;145.27;47.07;;;16.50;99.90;;;;;;5512583;26;20589;-49
2024/05/05 04:22:16;;;;;;;145.27;47.03;;;16.50;99.90;;;;;;5521636;26;21304;-50
2024/05/05 04:24:49;;;;;;;145.97;47.27;;;16.50;99.90;;;;;;5517885;26;20565;-52
2024/05/05 04:27:20;;;;;;;145.27;47.03;;;16.60;99.90;;;;;;5424149;26;20583;-50
2024/05/05 04:29:50;;;;;;;145.93;47.13;;;16.50;99.90;;;;;;5493435;26;20685;-51
2024/05/05 04:32:20;;;;;;;145.73;47.10;;;16.50;99.90;;;;;;5519601;26;20724;-50
2024/05/05 04:34:50;;;;;;;145.80;47.20;;;16.50;99.90;;;;;;5516175;26;20641;-51
2024/05/05 04:37:20;;;;;;;145.30;47.13;;;16.50;99.90;;;;;;5515307;26;20609;-51
2024/05/05 04:39:53;;;;;;;145.53;47.17;;;16.50;99.90;;;;;;5513582;26;20633;-50
2024/05/05 04:42:23;;;;;;;145.73;47.23;;;16.40;99.90;;;;;;5518917;26;21068;-51
2024/05/05 04:44:53;;;;;;;145.53;47.27;;;16.60;99.90;;;;;;5519115;26;21360;-51
2024/05/05 04:47:23;;;;;;;145.97;47.50;;;16.60;99.90;;;;;;5497040;26;20967;-50
2024/05/05 04:49:53;;;;;;;144.80;46.90;;;16.50;99.90;;;;;;5459536;26;20550;-51
2024/05/05 04:52:23;;;;;;;145.60;47.20;;;16.50;99.90;;;;;;5492217;26;20526;-51
2024/05/05 04:54:55;;;;;;;145.57;47.00;;;16.60;99.90;;;;;;5492692;26;20511;-52
2024/05/05 04:57:25;;;;;;;144.93;46.93;;;16.70;99.90;;;;;;5490924;26;20260;-52
2024/05/05 04:59:56;;;;;;;145.57;47.17;;;16.70;99.90;;;;;;5491097;26;20562;-50
2024/05/05 05:02:26;;;;;;;145.60;47.30;;;16.60;99.90;;;;;;5490402;26;20950;-50
2024/05/05 05:04:56;;;;;;;145.70;47.20;;;16.40;99.90;;;;;;5490875;26;20570;-50
2024/05/05 05:07:26;;;;;;;145.00;47.00;;;16.50;99.90;;;;;;5490641;26;20696;-50
2024/05/05 05:10:02;;;;;;;145.47;47.23;;;16.50;99.90;;;;;;5490911;26;20621;-50
2024/05/05 05:12:32;;;;;;;145.03;46.90;;;16.50;99.90;;;;;;5490958;26;20583;-52
2024/05/05 05:15:02;;;;;;;144.93;46.73;;;16.40;99.90;;;;;;5490896;26;20659;-50
2024/05/05 05:17:32;;;;;;;144.83;46.93;;;16.30;99.90;;;;;;5489504;26;20606;-50
2024/05/05 05:20:02;;;;;;;145.47;47.17;;;16.30;99.90;;;;;;5490983;26;21158;-50
2024/05/05 05:22:32;;;;;;;145.17;46.90;;;16.50;99.90;;;;;;5490277;26;21016;-50
2024/05/05 05:25:05;;;;;;;145.63;47.30;;;16.60;99.90;;;;;;5490718;26;20566;-50
2024/05/05 05:27:35;;;;;;;145.23;47.03;;;16.50;99.90;;;;;;5490590;26;20699;-49
2024/05/05 05:30:06;;;;;;;145.27;47.20;;;16.50;99.90;;;;;;5490841;26;20640;-50
2024/05/05 05:32:36;;;;;;;145.67;47.20;;;16.60;99.90;;;;;;5490649;26;20645;-51
2024/05/05 05:35:07;;;;;;;145.70;47.33;;;16.60;99.90;;;;;;5490677;26;21110;-53
2024/05/05 05:37:37;;;;;;;145.60;47.10;;;16.50;99.90;;;;;;5490261;26;20590;-51
2024/05/05 05:40:10;;;;;;;144.83;47.00;;;16.40;99.90;;;;;;5489542;26;20575;-52
2024/05/05 05:42:40;;;;;;;145.33;47.23;;;16.40;99.90;;;;;;5490216;26;20630;-49
2024/05/05 05:45:10;;;;;;;145.23;47.20;;;16.40;99.90;;;;;;5490432;26;20668;-51
2024/05/05 05:47:40;;;;;;;145.97;47.40;;;16.30;99.90;;;;;;5489510;26;20634;-50
2024/05/05 05:50:11;;;;;;;145.40;47.13;;;16.50;99.90;;;;;;5488257;26;20578;-50
2024/05/05 05:52:42;;;;;;;145.00;47.07;;;16.50;99.90;;;;;;5490240;26;20590;-50
2024/05/05 05:55:15;;;;;;;146.17;47.53;;;16.60;99.90;;;;;;5489951;26;20586;-51
2024/05/05 05:57:45;;;;;;;145.43;47.37;;;16.70;99.90;;;;;;5490302;26;20582;-51
2024/05/05 06:00:15;;;;;;;146.07;47.50;;;16.80;99.90;;;;;;5490545;26;20895;-50
2024/05/05 06:02:45;;;;;;;145.60;47.27;;;16.60;99.90;;;;;;5489879;26;20598;-51
2024/05/05 06:05:15;;;;;;;145.93;47.60;;;16.60;99.90;;;;;;5490328;26;20593;-49
2024/05/05 06:07:45;;;;;;;145.97;47.50;;;16.60;99.90;;;;;;5490149;26;20698;-49
2024/05/05 06:10:18;;;;;;;145.83;47.43;;;16.60;99.90;;;;;;5489912;26;21001;-50
2024/05/05 06:12:48;;;;;;;146.00;47.57;;;16.70;99.90;;;;;;5490077;26;21225;-51
2024/05/05 06:15:18;;;;;;;145.63;47.30;;;16.60;99.90;;;;;;5488337;26;20617;-50
2024/05/05 06:17:48;;;;;;;146.07;47.63;;;16.50;99.90;;;;;;5489618;26;20590;-49
2024/05/05 06:20:18;;;;;;;145.53;47.20;;;16.70;99.90;;;;;;5489898;26;20602;-49
2024/05/05 06:22:48;;;;;;;145.30;47.00;;;16.70;99.90;;;;;;5489661;26;20598;-50
2024/05/05 06:25:21;;;;;;;145.43;47.23;;;16.60;99.90;;;;;;5489949;26;20534;-50
2024/05/05 06:27:51;;;;;;;145.20;47.10;;;16.70;99.90;;;;;;5457491;26;20771;-49
2024/05/05 06:30:21;;;;;;;145.97;47.60;;;16.70;99.90;;;;;;5489654;26;20574;-49
2024/05/05 06:32:51;;;;;;;145.57;47.30;;;16.80;99.40;;;;;;5489259;26;21262;-50
2024/05/05 06:35:21;;;;;;;145.50;47.30;;;17.00;99.50;;;;;;5490058;26;20949;-50
2024/05/05 06:37:51;;;;;;;145.80;47.40;;;17.10;99.00;;;;;;5489447;26;21197;-50
2024/05/05 06:40:27;;;;;;;146.23;47.63;;;17.00;98.90;;;;;;5489993;26;20591;-50
2024/05/05 06:42:57;;;;;;;145.53;47.40;;;16.90;98.50;;;;;;5489695;26;20631;-50
2024/05/05 06:45:27;;;;;;;145.97;47.37;;;16.80;99.80;;;;;;5489670;26;20623;-50
2024/05/05 06:47:57;;;;;;;146.20;47.63;;;16.90;98.60;;;;;;5489220;26;20598;-49
2024/05/05 06:50:27;;;;;;;145.83;47.37;;;16.70;99.60;;;;;;5489772;26;20554;-50
2024/05/05 06:52:57;;;;;;;145.83;47.43;;;16.80;99.90;;;;;;5489345;26;21275;-50
2024/05/05 06:55:30;;;;;;;146.00;47.57;;;16.90;99.10;;;;;;5489651;26;21236;-50
2024/05/05 06:58:00;;;;;;;145.13;47.00;;;16.80;99.40;;;;;;5489131;26;20986;-50
2024/05/05 07:00:30;;;;;;;146.13;47.67;;;16.90;97.90;;;;;;5488432;26;20543;-50
2024/05/05 07:03:00;;;;;;;146.33;47.80;;;16.90;99.50;;;;;;5489145;26;20558;-50
2024/05/05 07:05:30;;;;;;;145.63;47.47;;;17.20;97.70;;;;;;5489309;26;20602;-50
2024/05/05 07:08:00;;;;;;;146.87;47.90;;;17.30;98.40;;;;;;5489250;26;20652;-50
2024/05/05 07:10:33;;;;;;;147.13;48.17;;;17.50;97.70;;;;;;5489571;26;20652;-50
2024/05/05 07:13:03;;;;;;;147.27;48.33;;;17.70;95.60;;;;;;5489368;26;20641;-50
2024/05/05 07:15:33;;;;;;;146.87;48.03;;;17.70;94.80;;;;;;5489026;26;20614;-50
2024/05/05 07:18:04;;;;;;;147.00;48.10;;;17.40;95.00;;;;;;5488798;26;20563;-50
2024/05/05 07:20:34;;;;;;;146.63;47.90;;;17.50;95.10;;;;;;5489013;26;20627;-50
2024/05/05 07:23:04;;;;;;;147.37;48.27;;;17.50;95.30;;;;;;5457004;26;20592;-51
2024/05/05 07:25:37;;;;;;;147.50;48.27;;;17.70;94.70;;;;;;5486163;26;20261;-50
2024/05/05 07:28:08;;;;;;;147.90;48.37;;;17.60;94.80;;;;;;5465348;26;20698;-55
2024/05/05 07:30:38;;;;;;;147.67;48.43;;;17.60;96.20;;;;;;5467311;26;20582;-49
2024/05/05 07:33:11;;;;;;;146.63;47.90;;;17.60;98.60;;;;;;5478986;26;20283;-53
2024/05/05 07:35:42;;;;;;;146.97;48.03;;;17.50;98.10;;;;;;5482842;26;20634;-48
2024/05/05 07:38:12;;;;;;;146.97;48.03;;;17.30;98.60;;;;;;5484843;26;21239;-49
2024/05/05 07:40:45;;;;;;;147.43;48.17;;;17.30;98.40;;;;;;5485417;26;20575;-49
2024/05/05 07:43:19;;;;;;;146.77;47.83;;;17.30;99.90;;;;;;5483440;26;20602;-49
2024/05/05 07:45:49;;;;;;;146.47;47.73;;;17.30;99.90;;;;;;5482320;26;20570;-49
2024/05/05 07:48:21;;;;;;;146.73;47.93;;;17.00;99.20;;;;;;5473719;26;20993;-50
2024/05/05 07:50:51;;;;;;;147.17;48.03;;;16.90;99.90;;;;;;5486056;26;20615;-49
2024/05/05 07:53:22;;;;;;;146.27;47.70;;;16.80;99.90;;;;;;5486826;26;20237;-49
2024/05/05 07:55:54;;;;;;;145.97;47.50;;;16.70;99.90;;;;;;5451811;26;20560;-50
2024/05/05 07:58:24;;;;;;;145.73;47.53;;;16.50;99.90;;;;;;5450484;26;20579;-50
2024/05/05 08:00:55;;;;;;;145.90;47.40;;;16.60;99.90;;;;;;5481726;26;20934;-50
2024/05/05 08:03:25;;;;;;;145.87;47.43;;;16.50;99.90;;;;;;5484925;26;20637;-50
2024/05/05 08:05:55;;;;;;;145.87;47.40;;;16.50;99.90;;;;;;5485648;26;20633;-49
2024/05/05 08:08:25;;;;;;;145.43;47.30;;;16.50;99.90;;;;;;5485375;26;20589;-50
2024/05/05 08:10:58;;;;;;;145.67;47.27;;;16.50;99.90;;;;;;5485834;26;20578;-50
2024/05/05 08:13:28;;;;;;;145.43;47.13;;;16.50;99.90;;;;;;5485864;26;20981;-50
2024/05/05 08:15:58;;;;;;;145.27;47.17;;;16.50;99.90;;;;;;5484916;26;20716;-50
2024/05/05 08:18:28;;;;;;;145.57;47.27;;;16.70;99.90;;;;;;5452372;26;20586;-50
2024/05/05 08:20:58;;;;;;;146.23;47.73;;;16.80;99.90;;;;;;5485845;26;20609;-51
2024/05/05 08:23:28;;;;;;;145.87;47.43;;;16.90;99.90;;;;;;5485142;26;21049;-51
2024/05/05 08:26:02;;;;;;;146.00;47.43;;;16.90;99.90;;;;;;5485762;26;20954;-50
2024/05/05 08:28:32;;;;;;;146.40;47.83;;;16.90;99.90;;;;;;5484087;26;21028;-50
2024/05/05 08:31:03;;;;;;;146.70;48.17;;;17.00;99.90;;;;;;5485092;26;20715;-51
2024/05/05 08:33:33;;;;;;;146.50;47.93;;;17.30;99.20;;;;;;5484951;26;20590;-51
2024/05/05 08:36:03;;;;;;;147.20;48.20;;;17.90;99.90;;;;;;5478271;26;20606;-50
2024/05/05 08:38:34;;;;;;;147.47;48.47;;;17.90;98.40;;;;;;5484634;26;21259;-50
2024/05/05 08:41:17;;;;;;;147.43;48.23;;;17.70;98.40;;;;;;5484237;26;21033;-50
2024/05/05 08:43:49;;;;;;;148.23;48.83;;;17.70;98.60;;;;;;5476038;26;20566;-51
2024/05/05 08:46:19;;;;;;;149.07;48.97;;;18.90;99.90;;;;;;5478492;26;20609;-50
2024/05/05 08:48:50;;;;;;;148.80;49.10;;;18.60;93.70;;;;;;5483725;26;21134;-50
2024/05/05 08:51:20;;;;;;;149.07;49.00;;;18.80;95.90;;;;;;5452001;26;20749;-50
2024/05/05 08:53:50;;;;;;;149.47;49.17;;;19.00;95.40;;;;;;5480726;26;20285;-50
2024/05/05 08:56:27;;;;;;;149.17;49.17;;;18.80;95.30;;;;;;5484070;26;20261;-51
2024/05/05 08:58:57;;;;;;;149.63;49.30;;;19.50;97.20;;;;;;5482891;26;20333;-50
2024/05/05 09:01:29;;;;;;;150.17;49.57;;;19.20;93.60;;;;;;5483980;26;20365;-50
2024/05/05 09:04:18;;;;;;;150.00;49.73;;;19.70;92.50;;;;;;5481330;26;20291;-50
2024/05/05 09:06:58;;;;;;;148.80;48.90;;;19.30;92.00;;;;;;5482860;26;20297;-51
2024/05/05 09:09:28;;;;;;;150.00;49.53;;;19.40;93.20;;;;;;5480071;26;20241;-50
2024/05/05 09:12:02;;;;;;;149.90;49.10;;;19.30;92.40;;;;;;5476483;26;20253;-51
2024/05/05 09:14:35;;;;;;;150.13;49.57;;;19.30;92.10;;;;;;5483578;26;20260;-51
2024/05/05 09:17:07;;;;;;;150.37;49.80;;;19.00;93.00;;;;;;5483315;26;20295;-55
2024/05/05 09:19:38;;;;;;;150.07;49.73;;;18.70;90.40;;;;;;5479913;26;20253;-50
2024/05/05 09:22:16;;;;;;;150.27;49.60;;;18.90;92.80;;;;;;5447979;26;20283;-51
2024/05/05 09:24:49;;;;;;;149.93;49.50;;;19.00;91.40;;;;;;5473068;26;20249;-51
2024/05/05 09:27:22;;;;;;;150.13;49.83;;;19.00;93.50;;;;;;5487271;26;20352;-51
2024/05/05 09:29:53;;;;;;;150.20;49.77;;;19.30;92.40;;;;;;5455050;26;20309;-52
2024/05/05 09:32:27;;;;;;;150.10;49.67;;;19.70;91.50;;;;;;5486735;26;20261;-52
2024/05/05 09:34:58;;;;;;;150.13;49.70;;;19.50;89.10;;;;;;5481907;26;20781;-51
2024/05/05 09:37:31;;;;;;;150.23;49.57;;;19.40;91.80;;;;;;5487432;26;20292;-51
2024/05/05 09:40:01;;;;;;;150.63;50.13;;;19.80;91.40;;;;;;5486681;26;20668;-52
2024/05/05 09:42:35;;;;;;;150.47;49.77;;;20.10;90.70;;;;;;5487945;26;20257;-50
2024/05/05 09:45:05;;;;;;;150.43;49.60;;;20.10;88.00;;;;;;5481609;26;20690;-51
2024/05/05 09:47:36;;;;;;;150.83;50.17;;;20.30;89.20;;;;;;5486607;26;20265;-50
2024/05/05 09:50:08;;;;;;;151.47;50.33;;;20.20;88.80;;;;;;5487343;26;20260;-51
2024/05/05 09:52:44;;;;;;;151.40;50.23;;;19.70;84.10;;;;;;5485959;26;20275;-51
2024/05/05 09:55:19;;;;;;;151.00;50.10;;;19.80;86.40;;;;;;5439730;26;20260;-52
2024/05/05 09:57:54;;;;;;;151.13;50.37;;;19.70;84.80;;;;;;5457200;26;20292;-51
2024/05/05 10:00:25;;;;;;;151.30;50.27;;;20.30;87.10;;;;;;5483421;26;20869;-51
2024/05/05 10:02:57;;;;;;;150.33;49.83;;;20.40;85.10;;;;;;5485027;26;20248;-54
2024/05/05 10:05:29;;;;;;;150.53;49.77;;;19.90;84.20;;;;;;5487360;26;20299;-50
2024/05/05 10:07:59;;;;;;;150.07;49.60;;;19.90;86.80;;;;;;5487007;26;20858;-50
2024/05/05 10:10:31;;;;;;;150.87;50.33;;;20.20;83.80;;;;;;5486895;26;20291;-52
2024/05/05 10:13:07;;;;;;;151.17;50.37;;;20.50;85.10;;;;;;5486915;26;20324;-51
2024/05/05 10:15:43;;;;;;;151.27;50.53;;;20.50;82.90;;;;;;5484106;26;20319;-51
2024/05/05 10:18:16;;;;;;;151.47;50.50;;;21.20;80.50;;;;;;5483664;26;20668;-50
2024/05/05 10:20:48;;;;;;;151.30;50.97;;;21.40;80.00;;;;;;5485845;26;20624;-50
2024/05/05 10:23:18;;;;;;;151.53;50.87;;;21.30;78.40;;;;;;5486684;26;20606;-51
2024/05/05 10:25:50;;;;;;;151.90;50.97;;;21.40;76.80;;;;;;5487005;26;20249;-50
2024/05/05 10:28:27;;;;;;;151.13;50.27;;;20.90;77.10;;;;;;5486271;26;21010;-51
2024/05/05 10:30:58;;;;;;;151.87;50.57;;;21.10;79.40;;;;;;5486251;26;20249;-51
2024/05/05 10:33:28;;;;;;;151.77;50.67;;;20.90;78.30;;;;;;5486120;26;20306;-51
2024/05/05 10:35:59;;;;;;;151.07;50.40;;;20.70;77.60;;;;;;5480160;26;20264;-51
2024/05/05 10:38:30;;;;;;;151.43;50.53;;;20.70;78.20;;;;;;5486932;26;20249;-50
2024/05/05 10:41:01;;;;;;;151.17;50.43;;;20.20;74.70;;;;;;5483608;26;20331;-51
2024/05/05 10:43:33;;;;;;;151.63;50.93;;;20.60;78.20;;;;;;5486510;26;20687;-50
2024/05/05 10:46:04;;;;;;;151.67;50.73;;;20.70;77.20;;;;;;5478109;26;20256;-50
2024/05/05 10:48:34;;;;;;;151.90;50.70;;;20.80;75.50;;;;;;5479183;26;20241;-50
2024/05/05 10:51:06;;;;;;;151.67;50.53;;;21.10;72.70;;;;;;5486608;26;20257;-50
2024/05/05 10:53:36;;;;;;;150.93;50.60;;;21.20;75.60;;;;;;5482191;26;20261;-50
2024/05/05 10:56:06;;;;;;;152.03;51.00;;;21.50;75.70;;;;;;5485874;26;20257;-50
2024/05/05 10:58:39;;;;;;;151.87;50.97;;;21.30;74.10;;;;;;5486632;26;20300;-51
2024/05/05 11:01:09;;;;;;;151.77;50.73;;;21.20;74.50;;;;;;5485900;26;20357;-50
2024/05/05 11:03:40;;;;;;;151.70;50.50;;;21.30;74.60;;;;;;5485654;26;20373;-50
2024/05/05 11:06:12;;;;;;;152.40;51.30;;;21.10;72.70;;;;;;5485855;26;20287;-50
2024/05/05 11:08:47;;;;;;;151.53;50.47;;;20.70;72.70;;;;;;5485570;26;20261;-50
2024/05/05 11:11:18;;;;;;;151.77;50.70;;;21.00;73.00;;;;;;5447547;26;20261;-50
2024/05/05 11:13:51;;;;;;;151.70;50.63;;;20.80;74.60;;;;;;5485815;26;20249;-50
2024/05/05 11:16:21;;;;;;;151.73;50.77;;;21.00;73.30;;;;;;5486064;26;20340;-50
2024/05/05 11:18:51;;;;;;;151.47;50.57;;;21.20;72.90;;;;;;5484332;26;20325;-50
2024/05/05 11:21:21;;;;;;;151.43;50.33;;;20.80;74.60;;;;;;5483043;26;20658;-50
2024/05/05 11:24:00;;;;;;;150.93;50.33;;;20.90;74.50;;;;;;5483064;26;20291;-50
2024/05/05 11:26:31;;;;;;;151.43;50.33;;;20.70;74.60;;;;;;5485106;26;20265;-50
2024/05/05 11:29:03;;;;;;;151.93;50.63;;;20.90;74.70;;;;;;5485711;26;20356;-50
2024/05/05 11:31:33;;;;;;;151.27;50.10;;;20.80;74.00;;;;;;5485440;26;20293;-50
2024/05/05 11:34:03;;;;;;;150.97;50.03;;;20.80;74.20;;;;;;5485242;26;20741;-50
2024/05/05 11:36:34;;;;;;;152.23;50.70;;;20.70;74.00;;;;;;5481355;26;20257;-50
2024/05/05 11:39:04;;;;;;;150.83;49.93;;;20.80;74.30;;;;;;5485338;26;20349;-50
2024/05/05 11:42:21;;;;;;;151.10;50.30;;;20.80;71.80;;;;;;5484621;26;20352;-49
2024/05/05 11:44:53;;;;;;;151.83;50.77;;;20.90;73.90;;;;;;5480344;26;20352;-51
2024/05/05 11:48:01;;;;;;;151.37;50.27;;;20.50;72.40;;;;;;5483998;26;20349;-50
2024/05/05 11:51:31;;;;;;;150.40;49.77;;;20.30;72.00;;;;;;5429508;26;20294;-50
2024/05/05 11:54:01;;;;;;;150.60;49.70;;;20.60;74.60;;;;;;5426668;26;20652;-50
2024/05/05 11:56:41;;;;;;;151.60;50.43;;;20.60;72.90;;;;;;5482645;26;20358;-50
2024/05/05 11:59:11;;;;;;;151.57;50.37;;;20.90;74.50;;;;;;5485007;26;20244;-50
2024/05/05 12:02:03;;;;;;;151.37;50.53;;;20.70;73.50;;;;;;5485363;26;20676;-50
2024/05/05 12:04:35;;;;;;;151.30;50.40;;;21.00;73.60;;;;;;5485086;26;20253;-55
2024/05/05 12:07:17;;;;;;;151.93;50.50;;;20.70;71.50;;;;;;5484824;26;20283;-50
2024/05/05 12:10:08;;;;;;;151.63;50.33;;;20.30;72.00;;;;;;5485038;26;20303;-50
2024/05/05 12:12:38;;;;;;;151.37;50.43;;;20.80;72.00;;;;;;5484294;26;20722;-51
2024/05/05 12:15:10;;;;;;;151.37;50.63;;;20.70;73.70;;;;;;5485541;26;20260;-50
2024/05/05 12:17:54;;;;;;;151.30;50.63;;;20.70;72.80;;;;;;5452099;26;20257;-51
2024/05/05 12:20:30;;;;;;;152.03;51.03;;;20.40;73.00;;;;;;5484194;26;20245;-50
2024/05/05 12:23:02;;;;;;;151.93;50.63;;;20.20;71.40;;;;;;5484920;26;20257;-50
2024/05/05 12:25:32;;;;;;;151.30;50.40;;;20.30;72.10;;;;;;5485187;26;20293;-50
2024/05/05 12:28:49;;;;;;;150.97;50.33;;;20.50;71.00;;;;;;5484482;26;20341;-50
2024/05/05 12:31:19;;;;;;;151.97;50.87;;;20.80;72.50;;;;;;5402483;26;20264;-50
2024/05/05 12:33:52;;;;;;;151.73;51.07;;;21.00;72.50;;;;;;5483323;26;20249;-50
2024/05/05 12:36:55;;;;;;;150.60;50.40;;;20.70;71.30;;;;;;5481605;26;20780;-50
2024/05/05 12:39:27;;;;;;;151.47;50.60;;;20.70;72.20;;;;;;5484942;26;20252;-50
2024/05/05 12:42:00;;;;;;;150.97;50.30;;;20.60;70.60;;;;;;5484506;26;20245;-50